Main page
METAR-TAF:

METAR-TAF

Airports :

Bahawalpur Airport

Bahawalpur, Pakistan

latitude: 29-20-53N, longitude: 71-43-04E, elevation: 119 m

METAR: missing

Time: 00:33 (19:33 UTC)

Forecast

The report was made 3 hours and 33 minutes ago, at 16:00 UTC
Forecast valid from 21 at 18 UTC to 22 at 12 UTC
Wind 10 kt from the Northeast
Visibility: 4000 m
Few clouds at a height of 4000 ft
Scattered clouds at a height of 12000 ft
haze
Probability 30% :
Temporary
from 22 at 03 UTC to 22 at 07 UTC
Wind 15 kt from the Southwest with gusts up to 25 kt
Visibility: 2000 m
Scattered clouds at a height of 12000 ft
Blowing dust

TAF: OPBW 211600Z 2118/2212 05010KT 4000 HZ FEW040 SCT120 TN30/2201Z TX39/2210Z PROB30 TEMPO 2203/2207 23015G25KT 2000 BLDU SCT120

Weather observations and forecasts of more than 4000 airports (METAR and TAF reports).

The available stations are represented by yellow and red dots on the map.

Hover mouse over dot to see the name of the station.

Then click to see weather observations and forecasts.

To change the map : click on the green buttons with a black cross to zoom in, on the green button with a dash to zoom out, or on the green arrows for adjacent maps.


METAR-TAF: